createdAt,value
2017-02-19T00:00:15.029Z,3.51
2017-02-19T00:01:24.367Z,3.52
2017-02-19T00:02:34.105Z,3.66
2017-02-19T00:03:43.586Z,3.68
2017-02-19T00:04:53.729Z,3.51
2017-02-19T00:06:03.453Z,3.5
2017-02-19T00:07:12.792Z,3.6
2017-02-19T00:08:22.117Z,3.54
2017-02-19T00:09:31.602Z,3.57
2017-02-19T00:10:40.921Z,3.55
2017-02-19T00:11:50.250Z,3.57
2017-02-19T00:12:59.178Z,3.57
2017-02-19T00:14:08.927Z,3.55
2017-02-19T00:15:19.319Z,3.51
2017-02-19T00:16:28.666Z,3.54
2017-02-19T00:17:38.013Z,3.48
2017-02-19T00:18:48.173Z,3.51
2017-02-19T00:19:57.528Z,3.47
2017-02-19T00:21:07.670Z,3.5
2017-02-19T00:22:17.410Z,3.48
2017-02-19T00:23:27.542Z,3.39
2017-02-19T00:24:36.459Z,3.45
2017-02-19T00:25:45.814Z,3.45
2017-02-19T00:26:55.242Z,3.29
2017-02-19T00:28:04.993Z,3.35
2017-02-19T00:29:15.140Z,3.33
2017-02-19T00:30:24.861Z,3.33
2017-02-19T00:31:34.177Z,3.28
2017-02-19T00:32:43.812Z,3.23
2017-02-19T00:33:52.725Z,3.29
2017-02-19T00:35:01.677Z,3.33
2017-02-19T00:36:11.405Z,3.31
2017-02-19T00:37:20.720Z,3.31
2017-02-19T00:38:30.215Z,3.23
2017-02-19T00:39:39.968Z,3.26
2017-02-19T00:40:49.699Z,3.32
2017-02-19T00:41:58.626Z,3.24
2017-02-19T00:43:07.953Z,3.26
2017-02-19T00:44:17.261Z,3.26
2017-02-19T00:45:27.416Z,3.26
2017-02-19T00:46:36.344Z,3.23
2017-02-19T00:47:45.668Z,3.23
2017-02-19T00:48:55.388Z,3.21
2017-02-19T00:50:05.278Z,3.21
2017-02-19T00:51:14.606Z,3.14
2017-02-19T00:52:23.947Z,3.18
2017-02-19T00:53:33.679Z,3.18
2017-02-19T00:54:43.402Z,3.15
2017-02-19T00:55:53.018Z,3.11
2017-02-19T00:57:02.345Z,3.13
2017-02-19T00:58:12.092Z,3.13
2017-02-19T00:59:21.411Z,3.11
2017-02-19T01:00:31.156Z,3.1
2017-02-19T01:01:40.517Z,3.1
2017-02-19T01:02:49.874Z,3.05
2017-02-19T01:03:59.202Z,3.03
2017-02-19T01:05:08.934Z,3.08
2017-02-19T01:06:19.079Z,3.06
2017-02-19T01:07:28.104Z,3.06
2017-02-19T01:08:37.458Z,3.15
2017-02-19T01:09:47.211Z,3.1
2017-02-19T01:10:57.392Z,3.15
2017-02-19T01:12:07.538Z,3.13
2017-02-19T01:13:17.017Z,3.13
2017-02-19T01:14:26.763Z,3.13
2017-02-19T01:15:35.684Z,3.1
2017-02-19T01:16:45.004Z,3.24
2017-02-19T01:17:54.739Z,3.21
2017-02-19T01:19:04.774Z,3.21
2017-02-19T01:20:15.342Z,3.28
2017-02-19T01:21:25.083Z,3.29
2017-02-19T01:22:34.008Z,3.31
2017-02-19T01:23:43.339Z,3.26
2017-02-19T01:24:53.598Z,3.35
2017-02-19T01:26:03.334Z,3.26
2017-02-19T01:27:12.242Z,3.39
2017-02-19T01:28:21.558Z,3.33
2017-02-19T01:29:31.293Z,3.33
2017-02-19T01:30:40.335Z,3.4
2017-02-19T01:31:50.074Z,3.45
2017-02-19T01:32:59.385Z,3.39
2017-02-19T01:34:08.744Z,3.43
2017-02-19T01:35:18.063Z,3.47
2017-02-19T01:36:27.134Z,3.42
2017-02-19T01:37:36.462Z,3.45
2017-02-19T01:38:45.808Z,3.42
2017-02-19T01:39:55.130Z,3.48
2017-02-19T01:41:04.863Z,3.52
2017-02-19T01:42:14.306Z,3.54
2017-02-19T01:43:23.645Z,3.52
2017-02-19T01:44:32.978Z,3.57
2017-02-19T01:45:42.310Z,3.54
2017-02-19T01:46:52.038Z,3.54
2017-02-19T01:48:01.909Z,3.52
2017-02-19T01:49:11.271Z,3.6
2017-02-19T01:50:21.015Z,3.52
2017-02-19T01:51:30.345Z,3.66
2017-02-19T01:52:39.685Z,3.52
2017-02-19T01:53:49.672Z,3.69
2017-02-19T01:54:59.403Z,3.54
2017-02-19T01:56:08.325Z,3.54
2017-02-19T01:57:17.646Z,3.72
2017-02-19T01:58:26.558Z,3.69
2017-02-19T01:59:36.073Z,3.68
2017-02-19T02:00:45.003Z,3.61
2017-02-19T02:01:53.917Z,3.65
2017-02-19T02:03:03.235Z,3.66
2017-02-19T02:04:12.571Z,3.72
2017-02-19T02:05:22.453Z,3.68
2017-02-19T02:06:32.177Z,3.66
2017-02-19T02:07:41.910Z,3.68
2017-02-19T02:08:50.825Z,3.65
2017-02-19T02:09:59.740Z,3.7
2017-02-19T02:11:09.511Z,3.72
2017-02-19T02:12:18.856Z,3.65
2017-02-19T02:13:27.761Z,3.62
2017-02-19T02:14:37.915Z,3.69
2017-02-19T02:15:47.233Z,3.66
2017-02-19T02:16:56.244Z,3.84
2017-02-19T02:18:06.374Z,3.73
2017-02-19T02:19:16.112Z,3.79
2017-02-19T02:20:25.446Z,3.73
2017-02-19T02:21:34.369Z,3.75
2017-02-19T02:22:43.333Z,3.86
2017-02-19T02:23:52.655Z,3.84
2017-02-19T02:25:01.595Z,3.88
2017-02-19T02:26:11.342Z,3.84
2017-02-19T02:27:21.881Z,3.87
2017-02-19T02:28:31.667Z,3.83
2017-02-19T02:29:41.390Z,3.86
2017-02-19T02:30:50.312Z,3.87
2017-02-19T02:32:00.037Z,3.79
2017-02-19T02:33:09.794Z,3.87
2017-02-19T02:34:19.183Z,3.86
2017-02-19T02:35:28.510Z,3.88
2017-02-19T02:36:38.647Z,3.88
2017-02-19T02:37:47.962Z,3.84
2017-02-19T02:38:58.098Z,3.79
2017-02-19T02:40:07.935Z,3.96
2017-02-19T02:41:17.261Z,3.83
2017-02-19T02:42:26.999Z,3.83
2017-02-19T02:43:36.345Z,3.83
2017-02-19T02:44:45.700Z,3.83
2017-02-19T02:45:55.984Z,3.94
2017-02-19T02:47:06.130Z,3.87
2017-02-19T02:48:16.700Z,3.78
2017-02-19T02:49:26.430Z,3.87
2017-02-19T02:50:35.756Z,3.88
2017-02-19T02:51:45.661Z,3.91
2017-02-19T02:52:54.986Z,3.94
2017-02-19T02:54:04.331Z,3.9
2017-02-19T02:55:13.665Z,3.88
2017-02-19T02:56:23.403Z,3.96
2017-02-19T02:57:32.886Z,3.91
2017-02-19T02:58:43.028Z,3.88
2017-02-19T02:59:52.365Z,3.88
2017-02-19T03:01:02.087Z,3.88
2017-02-19T03:02:12.643Z,3.88
2017-02-19T03:03:22.076Z,3.97
2017-02-19T03:04:30.990Z,3.93
2017-02-19T03:05:40.717Z,3.96
2017-02-19T03:06:50.494Z,3.96
2017-02-19T03:08:00.242Z,3.98
2017-02-19T03:09:09.712Z,3.98
2017-02-19T03:10:19.045Z,4.02
2017-02-19T03:11:28.372Z,4.09
2017-02-19T03:12:38.519Z,4.02
2017-02-19T03:13:48.276Z,4.02
2017-02-19T03:14:58.223Z,4.04
2017-02-19T03:16:08.387Z,4.05
2017-02-19T03:17:18.114Z,4.09
2017-02-19T03:18:27.441Z,4.06
2017-02-19T03:19:36.755Z,4.14
2017-02-19T03:20:46.541Z,4.15
2017-02-19T03:21:55.460Z,4.11
2017-02-19T03:23:05.590Z,4.12
2017-02-19T03:24:15.333Z,4.14
2017-02-19T03:25:24.652Z,4.14
2017-02-19T03:26:34.151Z,4.23
2017-02-19T03:27:43.062Z,4.08
2017-02-19T03:28:52.400Z,4.12
2017-02-19T03:30:01.307Z,4.18
2017-02-19T03:31:11.031Z,4.14
2017-02-19T03:32:20.398Z,4.14
2017-02-19T03:33:29.730Z,4.14
2017-02-19T03:34:39.075Z,4.16
2017-02-19T03:35:48.424Z,4.22
2017-02-19T03:36:58.195Z,4.14
2017-02-19T03:38:07.504Z,4.09
2017-02-19T03:39:17.633Z,4.12
2017-02-19T03:40:27.384Z,4.14
2017-02-19T03:41:36.316Z,4.18
2017-02-19T03:42:45.640Z,4.12
2017-02-19T03:43:55.666Z,4.26
2017-02-19T03:45:04.576Z,4.22
2017-02-19T03:46:13.506Z,4.22
2017-02-19T03:47:22.863Z,4.27
2017-02-19T03:48:32.210Z,4.23
2017-02-19T03:49:41.587Z,4.26
2017-02-19T03:50:50.920Z,4.23
2017-02-19T03:51:59.828Z,4.23
2017-02-19T03:53:09.558Z,4.27
2017-02-19T03:54:19.296Z,4.26
2017-02-19T03:55:28.916Z,4.29
2017-02-19T03:56:39.480Z,4.3
2017-02-19T03:57:48.804Z,4.32
2017-02-19T03:58:58.160Z,4.36
2017-02-19T04:00:07.078Z,4.34
2017-02-19T04:01:16.907Z,4.32
2017-02-19T04:02:25.823Z,4.32
2017-02-19T04:03:35.587Z,4.26
2017-02-19T04:04:44.972Z,4.29
2017-02-19T04:05:54.706Z,4.4
2017-02-19T04:07:04.750Z,4.41
2017-02-19T04:08:14.100Z,4.37
2017-02-19T04:09:23.425Z,4.41
2017-02-19T04:10:33.582Z,4.42
2017-02-19T04:11:42.502Z,4.47
2017-02-19T04:12:52.752Z,4.47
2017-02-19T04:14:02.080Z,4.48
2017-02-19T04:15:11.810Z,4.4
2017-02-19T04:16:21.943Z,4.4
2017-02-19T04:17:31.683Z,4.44
2017-02-19T04:18:41.572Z,4.41
2017-02-19T04:19:50.525Z,4.4
2017-02-19T04:20:59.437Z,4.44
2017-02-19T04:22:08.358Z,4.41
2017-02-19T04:23:17.691Z,4.37
2017-02-19T04:24:27.108Z,4.4
2017-02-19T04:25:36.020Z,4.27
2017-02-19T04:26:44.970Z,4.3
2017-02-19T04:27:54.731Z,4.3
2017-02-19T04:29:04.473Z,4.24
2017-02-19T04:30:14.648Z,4.23
2017-02-19T04:31:23.969Z,4.24
2017-02-19T04:32:33.688Z,4.2
2017-02-19T04:33:43.028Z,4.2
2017-02-19T04:34:52.749Z,4.27
2017-02-19T04:36:03.019Z,4.12
2017-02-19T04:37:12.344Z,4.23
2017-02-19T04:38:21.674Z,4.14
2017-02-19T04:39:31.004Z,4.18
2017-02-19T04:40:39.923Z,4.12
2017-02-19T04:41:49.708Z,4.09
2017-02-19T04:42:59.431Z,4.09
2017-02-19T04:44:09.976Z,4.08
2017-02-19T04:45:19.286Z,4.06
2017-02-19T04:46:28.627Z,4.06
2017-02-19T04:47:38.044Z,4.04
2017-02-19T04:48:47.369Z,4.06
2017-02-19T04:49:57.097Z,4.06
2017-02-19T04:51:07.245Z,4.11
2017-02-19T04:52:16.567Z,4.08
2017-02-19T04:53:26.449Z,4.06
2017-02-19T04:54:35.365Z,4.09
2017-02-19T04:55:45.501Z,4.08
2017-02-19T04:56:54.820Z,4.04
2017-02-19T04:58:04.143Z,4.06
2017-02-19T04:59:13.780Z,4.12
2017-02-19T05:00:23.522Z,4.11
2017-02-19T05:01:32.433Z,4.11
2017-02-19T05:02:41.775Z,4.12
2017-02-19T05:03:51.119Z,4.08
2017-02-19T05:05:00.632Z,4.11
2017-02-19T05:06:10.369Z,4.05
2017-02-19T05:07:19.698Z,4.04
2017-02-19T05:08:29.006Z,4.08
2017-02-19T05:09:38.326Z,3.98
2017-02-19T05:10:47.799Z,3.94
2017-02-19T05:11:57.127Z,4.02
2017-02-19T05:13:06.040Z,4.04
2017-02-19T05:14:14.961Z,4
2017-02-19T05:15:24.684Z,3.98
2017-02-19T05:16:35.116Z,3.97
2017-02-19T05:17:44.458Z,3.98
2017-02-19T05:18:55.004Z,3.96
2017-02-19T05:20:04.748Z,3.96
2017-02-19T05:21:14.495Z,3.94
2017-02-19T05:22:23.905Z,3.94
2017-02-19T05:23:32.815Z,3.98
2017-02-19T05:24:42.962Z,3.97
2017-02-19T05:25:52.302Z,3.96
2017-02-19T05:27:02.045Z,3.93
2017-02-19T05:28:11.930Z,3.91
2017-02-19T05:29:21.253Z,3.94
2017-02-19T05:30:30.610Z,3.97
2017-02-19T05:31:39.941Z,4.06
2017-02-19T05:32:49.270Z,3.91
2017-02-19T05:33:59.065Z,3.98
2017-02-19T05:35:08.379Z,4.02
2017-02-19T05:36:17.293Z,3.9
2017-02-19T05:37:27.025Z,3.97
2017-02-19T05:38:36.372Z,3.98
2017-02-19T05:39:45.581Z,3.94
2017-02-19T05:40:54.922Z,3.9
2017-02-19T05:42:04.264Z,3.9
2017-02-19T05:43:13.589Z,3.94
2017-02-19T05:44:22.908Z,3.97
2017-02-19T05:45:31.825Z,3.94
2017-02-19T05:46:41.152Z,4.05
2017-02-19T05:47:51.306Z,3.97
2017-02-19T05:49:00.217Z,4.04
2017-02-19T05:50:09.957Z,4.09
2017-02-19T05:51:19.372Z,3.94
2017-02-19T05:52:28.711Z,4.05
2017-02-19T05:53:38.450Z,4.11
2017-02-19T05:54:48.180Z,4.06
2017-02-19T05:55:57.093Z,4.02
2017-02-19T05:57:06.571Z,4.06
2017-02-19T05:58:16.738Z,4.14
2017-02-19T05:59:25.646Z,4.2
2017-02-19T06:00:35.393Z,4.16
2017-02-19T06:01:45.117Z,4.18
2017-02-19T06:02:54.585Z,4.11
2017-02-19T06:04:04.728Z,4.11
2017-02-19T06:05:14.475Z,4.18
2017-02-19T06:06:24.633Z,4.15
2017-02-19T06:07:34.009Z,4.14
2017-02-19T06:08:43.399Z,4.22
2017-02-19T06:09:52.754Z,4.11
2017-02-19T06:11:02.483Z,4.15
2017-02-19T06:12:11.839Z,4.12
2017-02-19T06:13:21.166Z,4.24
2017-02-19T06:14:30.895Z,4.24
2017-02-19T06:15:40.625Z,4.24
2017-02-19T06:16:50.365Z,4.22
2017-02-19T06:17:59.693Z,4.26
2017-02-19T06:19:09.019Z,4.26
2017-02-19T06:20:18.809Z,4.29
2017-02-19T06:21:28.129Z,4.33
2017-02-19T06:22:37.467Z,4.3
2017-02-19T06:23:46.817Z,4.33
2017-02-19T06:24:56.954Z,4.33
2017-02-19T06:26:07.408Z,4.33
2017-02-19T06:27:17.149Z,4.34
2017-02-19T06:28:26.899Z,4.32
2017-02-19T06:29:36.635Z,4.33
2017-02-19T06:30:45.977Z,4.37
2017-02-19T06:31:55.048Z,4.45
2017-02-19T06:33:05.194Z,4.45
2017-02-19T06:34:14.558Z,4.44
2017-02-19T06:35:24.721Z,4.4
2017-02-19T06:36:33.674Z,4.45
2017-02-19T06:37:43.153Z,4.44
2017-02-19T06:38:53.304Z,4.47
2017-02-19T06:40:03.064Z,4.48
2017-02-19T06:41:12.787Z,4.42
2017-02-19T06:42:22.521Z,4.41
2017-02-19T06:43:31.677Z,4.42
2017-02-19T06:44:40.600Z,4.42
2017-02-19T06:45:50.350Z,4.5
2017-02-19T06:46:59.687Z,4.45
2017-02-19T06:48:09.014Z,4.55
2017-02-19T06:49:19.211Z,4.48
2017-02-19T06:50:28.540Z,4.6
2017-02-19T06:51:37.862Z,4.55
2017-02-19T06:52:48.008Z,4.51
2017-02-19T06:53:57.349Z,4.52
2017-02-19T06:55:06.676Z,4.52
2017-02-19T06:56:15.997Z,4.6
2017-02-19T06:57:25.350Z,4.54
2017-02-19T06:58:34.696Z,4.6
2017-02-19T06:59:44.468Z,4.59
2017-02-19T07:00:53.536Z,4.59
2017-02-19T07:02:03.267Z,4.69
2017-02-19T07:03:12.582Z,4.55
2017-02-19T07:04:22.313Z,4.63
2017-02-19T07:05:31.649Z,4.65
2017-02-19T07:06:41.183Z,4.6
2017-02-19T07:07:50.914Z,4.69
2017-02-19T07:09:00.655Z,4.72
2017-02-19T07:10:10.379Z,4.75
2017-02-19T07:11:19.302Z,4.73
2017-02-19T07:12:29.447Z,4.73
2017-02-19T07:13:40.015Z,4.78
2017-02-19T07:14:49.542Z,4.75
2017-02-19T07:15:58.907Z,4.7
2017-02-19T07:17:08.642Z,4.86
2017-02-19T07:18:18.314Z,4.91
2017-02-19T07:19:28.042Z,4.94
2017-02-19T07:20:37.359Z,4.96
2017-02-19T07:21:47.097Z,4.89
2017-02-19T07:22:56.443Z,4.94
2017-02-19T07:24:05.781Z,5.02
2017-02-19T07:25:14.711Z,5
2017-02-19T07:26:24.483Z,4.97
2017-02-19T07:27:33.434Z,4.97
2017-02-19T07:28:43.612Z,4.96
2017-02-19T07:29:53.496Z,5
2017-02-19T07:31:03.644Z,5.09
2017-02-19T07:32:13.857Z,5.15
2017-02-19T07:33:23.231Z,5.09
2017-02-19T07:34:32.993Z,5
2017-02-19T07:35:42.884Z,5.1
2017-02-19T07:36:51.837Z,5.04
2017-02-19T07:38:00.752Z,5.02
2017-02-19T07:39:10.907Z,5.03
2017-02-19T07:40:20.259Z,5.17
2017-02-19T07:41:30.134Z,5.07
2017-02-19T07:42:40.465Z,5.17
2017-02-19T07:43:49.823Z,5.13
2017-02-19T07:44:58.841Z,5.15
2017-02-19T07:46:08.596Z,5.12
2017-02-19T07:47:19.113Z,5.18
2017-02-19T07:48:28.033Z,5.12
2017-02-19T07:49:37.443Z,5.2
2017-02-19T07:50:46.367Z,5.2
2017-02-19T07:51:55.355Z,5.24
2017-02-19T07:53:05.139Z,5.28
2017-02-19T07:54:14.931Z,5.27
2017-02-19T07:55:25.149Z,5.3
2017-02-19T07:56:34.531Z,5.3
2017-02-19T07:57:43.503Z,5.31
2017-02-19T07:58:53.480Z,5.36
2017-02-19T08:00:03.080Z,5.4
2017-02-19T08:01:12.060Z,5.48
2017-02-19T08:02:20.986Z,5.48
2017-02-19T08:03:31.281Z,5.46
2017-02-19T08:04:40.655Z,5.43
2017-02-19T08:05:50.017Z,5.53
2017-02-19T08:06:59.408Z,5.49
2017-02-19T08:08:08.958Z,5.57
2017-02-19T08:09:19.103Z,5.54
2017-02-19T08:10:28.476Z,5.48
2017-02-19T08:11:37.840Z,5.53
2017-02-19T08:12:46.783Z,5.57
2017-02-19T08:13:55.726Z,5.57
2017-02-19T08:15:05.105Z,5.57
2017-02-19T08:16:14.918Z,5.63
2017-02-19T08:17:23.850Z,5.56
2017-02-19T08:18:32.860Z,5.6
2017-02-19T08:19:42.651Z,5.64
2017-02-19T08:20:52.437Z,5.63
2017-02-19T08:22:01.906Z,5.65
2017-02-19T08:23:10.838Z,5.61
2017-02-19T08:24:20.150Z,5.67
2017-02-19T08:25:29.123Z,5.63
2017-02-19T08:26:38.900Z,5.61
2017-02-19T08:27:49.673Z,5.63
2017-02-19T08:28:58.617Z,5.65
2017-02-19T08:30:08.790Z,5.64
2017-02-19T08:31:17.715Z,5.68
2017-02-19T08:32:27.462Z,5.68
2017-02-19T08:33:36.939Z,5.61
2017-02-19T08:34:46.281Z,5.63
2017-02-19T08:35:55.622Z,5.64
2017-02-19T08:37:04.959Z,5.68
2017-02-19T08:38:14.685Z,5.67
2017-02-19T08:39:23.947Z,5.71
2017-02-19T08:40:33.277Z,5.76
2017-02-19T08:41:42.215Z,5.71
2017-02-19T08:42:52.365Z,5.67
2017-02-19T08:44:01.690Z,5.68
2017-02-19T08:45:11.035Z,5.72
2017-02-19T08:46:20.778Z,5.67
2017-02-19T08:47:30.526Z,5.67
2017-02-19T08:48:39.853Z,5.67
2017-02-19T08:49:49.181Z,5.74
2017-02-19T08:50:59.058Z,5.74
2017-02-19T08:52:08.407Z,5.75
2017-02-19T08:53:18.578Z,5.82
2017-02-19T08:54:28.737Z,5.71
2017-02-19T08:55:38.080Z,5.79
2017-02-19T08:56:47.975Z,5.81
2017-02-19T08:57:57.297Z,5.79
2017-02-19T08:59:06.624Z,5.78
2017-02-19T09:00:15.554Z,5.75
2017-02-19T09:01:25.287Z,5.78
2017-02-19T09:02:34.400Z,5.71
2017-02-19T09:03:44.130Z,5.75
2017-02-19T09:04:53.474Z,5.75
2017-02-19T09:06:02.794Z,5.79
2017-02-19T09:07:12.139Z,5.71
2017-02-19T09:08:21.133Z,5.75
2017-02-19T09:09:30.878Z,5.81
2017-02-19T09:10:39.797Z,5.79
2017-02-19T09:11:49.536Z,5.75
2017-02-19T09:12:58.889Z,5.65
2017-02-19T09:14:08.465Z,5.68
2017-02-19T09:15:17.393Z,5.64
2017-02-19T09:16:27.129Z,5.72
2017-02-19T09:17:36.875Z,5.67
2017-02-19T09:18:46.191Z,5.63
2017-02-19T09:19:56.378Z,5.65
2017-02-19T09:21:05.302Z,5.65
2017-02-19T09:22:14.226Z,5.63
2017-02-19T09:23:23.150Z,5.63
2017-02-19T09:24:32.086Z,5.68
2017-02-19T09:25:41.155Z,5.64
2017-02-19T09:26:50.080Z,5.63
2017-02-19T09:27:59.821Z,5.63
2017-02-19T09:29:09.589Z,5.56
2017-02-19T09:30:18.913Z,5.54
2017-02-19T09:31:28.767Z,5.45
2017-02-19T09:32:38.119Z,5.51
2017-02-19T09:33:47.445Z,5.54
2017-02-19T09:34:56.773Z,5.49
2017-02-19T09:36:06.945Z,5.45
2017-02-19T09:37:16.585Z,5.46
2017-02-19T09:38:26.333Z,5.48
2017-02-19T09:39:36.503Z,5.49
2017-02-19T09:40:45.442Z,5.56
2017-02-19T09:41:55.596Z,5.43
2017-02-19T09:43:05.079Z,5.46
2017-02-19T09:44:15.218Z,5.45
2017-02-19T09:45:24.951Z,5.45
2017-02-19T09:46:34.301Z,5.49
2017-02-19T09:47:43.226Z,5.46
2017-02-19T09:48:52.202Z,5.48
2017-02-19T09:50:02.356Z,5.56
2017-02-19T09:51:11.299Z,5.57
2017-02-19T09:52:21.446Z,5.57
2017-02-19T09:53:31.183Z,5.54
2017-02-19T09:54:40.986Z,5.57
2017-02-19T09:55:50.319Z,5.46
2017-02-19T09:57:00.067Z,5.58
2017-02-19T09:58:09.010Z,5.46
2017-02-19T09:59:18.747Z,5.53
2017-02-19T10:00:28.560Z,5.56
2017-02-19T10:01:38.559Z,5.48
2017-02-19T10:02:47.918Z,5.53
2017-02-19T10:03:56.846Z,5.58
2017-02-19T10:05:06.175Z,5.63
2017-02-19T10:06:15.120Z,5.81
2017-02-19T10:07:24.036Z,5.72
2017-02-19T10:08:34.207Z,5.71
2017-02-19T10:09:43.547Z,5.65
2017-02-19T10:10:53.700Z,5.65
2017-02-19T10:12:03.207Z,5.64
2017-02-19T10:13:12.546Z,5.63
2017-02-19T10:14:21.880Z,5.64
2017-02-19T10:15:31.219Z,5.61
2017-02-19T10:16:40.132Z,5.63
2017-02-19T10:17:49.860Z,5.6
2017-02-19T10:18:58.781Z,5.58
2017-02-19T10:20:08.106Z,5.61
2017-02-19T10:21:18.131Z,5.58
2017-02-19T10:22:27.736Z,5.6
2017-02-19T10:23:37.519Z,5.61
2017-02-19T10:24:46.843Z,5.61
2017-02-19T10:25:56.181Z,5.61
2017-02-19T10:27:06.330Z,5.67
2017-02-19T10:28:15.706Z,5.63
2017-02-19T10:29:25.055Z,5.6
2017-02-19T10:30:35.250Z,5.65
2017-02-19T10:31:44.568Z,5.67
2017-02-19T10:32:53.517Z,5.63
2017-02-19T10:34:02.853Z,5.61
2017-02-19T10:35:12.592Z,5.64
2017-02-19T10:36:21.914Z,5.64
2017-02-19T10:37:31.374Z,5.63
2017-02-19T10:38:40.709Z,5.6
2017-02-19T10:39:50.037Z,5.64
2017-02-19T10:40:59.774Z,5.6
2017-02-19T10:42:09.521Z,5.65
2017-02-19T10:43:19.349Z,5.65
2017-02-19T10:44:28.681Z,5.65
2017-02-19T10:45:38.419Z,5.64
2017-02-19T10:46:47.767Z,5.67
2017-02-19T10:47:57.535Z,5.71
2017-02-19T10:49:07.006Z,5.63
2017-02-19T10:50:16.357Z,5.63
2017-02-19T10:51:25.345Z,5.64
2017-02-19T10:52:35.502Z,5.63
2017-02-19T10:53:45.243Z,5.64
2017-02-19T10:54:54.877Z,5.63
2017-02-19T10:56:05.043Z,5.64
2017-02-19T10:57:14.382Z,5.63
2017-02-19T10:58:23.730Z,5.6
2017-02-19T10:59:33.874Z,5.64
2017-02-19T11:00:42.980Z,5.61
2017-02-19T11:01:52.324Z,5.45
2017-02-19T11:03:01.246Z,5.49
2017-02-19T11:04:10.156Z,5.54
2017-02-19T11:05:19.089Z,5.54
2017-02-19T11:06:28.474Z,5.56
2017-02-19T11:07:37.814Z,5.48
2017-02-19T11:08:47.542Z,5.53
2017-02-19T11:09:57.277Z,5.56
2017-02-19T11:11:06.627Z,5.56
2017-02-19T11:12:16.046Z,5.58
2017-02-19T11:13:25.376Z,5.51
2017-02-19T11:14:34.711Z,5.56
2017-02-19T11:15:44.028Z,5.53
2017-02-19T11:16:53.355Z,5.57
2017-02-19T11:18:03.551Z,5.56
2017-02-19T11:19:12.498Z,5.6
2017-02-19T11:20:22.250Z,5.49
2017-02-19T11:21:32.834Z,5.45
2017-02-19T11:22:42.162Z,5.58
2017-02-19T11:23:51.591Z,5.54
2017-02-19T11:25:02.147Z,5.53
2017-02-19T11:26:11.877Z,5.57
2017-02-19T11:27:21.200Z,5.57
2017-02-19T11:28:30.129Z,5.58
2017-02-19T11:29:39.059Z,5.57
2017-02-19T11:30:48.396Z,5.56
2017-02-19T11:31:57.735Z,5.56
2017-02-19T11:33:06.655Z,5.53
2017-02-19T11:34:15.979Z,5.46
2017-02-19T11:35:25.416Z,5.58
2017-02-19T11:36:34.770Z,5.54
2017-02-19T11:37:44.507Z,5.49
2017-02-19T11:38:53.830Z,5.43
2017-02-19T11:40:03.982Z,5.42
2017-02-19T11:41:14.262Z,5.48
2017-02-19T11:42:23.189Z,5.45
2017-02-19T11:43:32.536Z,5.48
2017-02-19T11:44:42.270Z,5.49
2017-02-19T11:45:51.213Z,5.48
2017-02-19T11:47:00.838Z,5.45
2017-02-19T11:48:10.583Z,5.48
2017-02-19T11:49:19.496Z,5.49
2017-02-19T11:50:28.407Z,5.43
2017-02-19T11:51:37.754Z,5.53
2017-02-19T11:52:47.195Z,5.46
2017-02-19T11:53:56.940Z,5.51
2017-02-19T11:55:06.670Z,5.45
2017-02-19T11:56:16.021Z,5.48
2017-02-19T11:57:24.951Z,5.46
2017-02-19T11:58:34.385Z,5.45
2017-02-19T11:59:43.715Z,5.45
2017-02-19T12:00:53.042Z,5.54
2017-02-19T12:02:02.383Z,5.48
2017-02-19T12:03:11.725Z,5.45
2017-02-19T12:04:21.247Z,5.53
2017-02-19T12:05:31.391Z,5.58
2017-02-19T12:06:40.718Z,5.56
2017-02-19T12:07:50.049Z,5.57
2017-02-19T12:08:58.973Z,5.56
2017-02-19T12:10:08.455Z,5.61
2017-02-19T12:11:17.377Z,5.61
2017-02-19T12:12:26.309Z,5.6
2017-02-19T12:13:35.626Z,5.57
2017-02-19T12:14:45.364Z,5.63
2017-02-19T12:15:55.157Z,5.65
2017-02-19T12:17:04.512Z,5.68
2017-02-19T12:18:13.846Z,5.63
2017-02-19T12:19:23.625Z,5.68
2017-02-19T12:20:32.961Z,5.6
2017-02-19T12:21:42.691Z,5.63
2017-02-19T12:22:52.440Z,5.65
2017-02-19T12:24:01.358Z,5.68
2017-02-19T12:25:10.677Z,5.72
2017-02-19T12:26:20.003Z,5.79
2017-02-19T12:27:28.913Z,5.74
2017-02-19T12:28:38.652Z,5.83
2017-02-19T12:29:47.988Z,5.68
2017-02-19T12:30:57.757Z,5.67
2017-02-19T12:32:07.088Z,5.67
2017-02-19T12:33:16.963Z,5.72
2017-02-19T12:34:26.290Z,5.72
2017-02-19T12:35:36.045Z,5.79
2017-02-19T12:36:44.968Z,5.72
2017-02-19T12:37:54.290Z,5.68
2017-02-19T12:39:03.785Z,5.75
2017-02-19T12:40:12.708Z,5.76
2017-02-19T12:41:22.056Z,5.67
2017-02-19T12:42:31.385Z,5.74
2017-02-19T12:43:40.309Z,5.67
2017-02-19T12:44:49.711Z,5.81
2017-02-19T12:45:58.632Z,5.78
2017-02-19T12:47:08.375Z,5.79
2017-02-19T12:48:17.288Z,5.83
2017-02-19T12:49:27.037Z,5.82
2017-02-19T12:50:36.509Z,5.82
2017-02-19T12:51:45.425Z,5.86
2017-02-19T12:52:55.175Z,5.9
2017-02-19T12:54:04.907Z,5.81
2017-02-19T12:55:13.827Z,5.76
2017-02-19T12:56:22.967Z,5.79
2017-02-19T12:57:32.304Z,5.83
2017-02-19T12:58:42.849Z,5.89
2017-02-19T12:59:52.186Z,5.81
2017-02-19T13:01:01.936Z,5.94
2017-02-19T13:02:11.721Z,5.96
2017-02-19T13:03:21.485Z,5.91
2017-02-19T13:04:30.824Z,5.93
2017-02-19T13:05:41.437Z,5.89
2017-02-19T13:06:51.184Z,5.96
2017-02-19T13:08:01.502Z,5.96
2017-02-19T13:09:10.846Z,6.01
2017-02-19T13:10:20.998Z,6
2017-02-19T13:11:30.736Z,6.01
2017-02-19T13:12:40.484Z,5.99
2017-02-19T13:13:49.477Z,6.04
2017-02-19T13:14:58.820Z,6.03
2017-02-19T13:16:08.145Z,6.15
2017-02-19T13:17:17.517Z,6.06
2017-02-19T13:18:27.259Z,6.06
2017-02-19T13:19:36.330Z,6.14
2017-02-19T13:20:45.673Z,6.11
2017-02-19T13:21:55.833Z,6.01
2017-02-19T13:23:04.769Z,6.03
2017-02-19T13:24:14.114Z,6.03
2017-02-19T13:25:23.462Z,6.06
2017-02-19T13:26:32.389Z,6.14
2017-02-19T13:27:41.742Z,6.09
2017-02-19T13:28:51.073Z,6.12
2017-02-19T13:29:59.988Z,6.12
2017-02-19T13:31:09.558Z,6.09
2017-02-19T13:32:19.293Z,6.15
2017-02-19T13:33:28.621Z,6.14
2017-02-19T13:34:37.941Z,6.08
2017-02-19T13:35:47.286Z,6.17
2017-02-19T13:36:57.643Z,6.06
2017-02-19T13:38:06.977Z,6.11
2017-02-19T13:39:17.126Z,6.06
2017-02-19T13:40:26.051Z,6.25
2017-02-19T13:41:35.804Z,6.12
2017-02-19T13:42:45.706Z,6.17
2017-02-19T13:43:55.061Z,6.17
2017-02-19T13:45:04.809Z,6.25
2017-02-19T13:46:13.742Z,6.22
2017-02-19T13:47:23.123Z,6.25
2017-02-19T13:48:32.878Z,6.21
2017-02-19T13:49:42.622Z,6.27
2017-02-19T13:50:52.362Z,6.28
2017-02-19T13:52:02.114Z,6.18
2017-02-19T13:53:11.895Z,6.19
2017-02-19T13:54:21.340Z,6.18
2017-02-19T13:55:31.486Z,6.15
2017-02-19T13:56:40.872Z,6.19
2017-02-19T13:57:50.433Z,6.21
2017-02-19T13:58:59.827Z,6.14
2017-02-19T14:00:09.288Z,6.28
2017-02-19T14:01:18.676Z,6.19
2017-02-19T14:02:28.530Z,6.17
2017-02-19T14:03:38.295Z,6.18
2017-02-19T14:04:48.111Z,6.25
2017-02-19T14:05:57.920Z,6.04
2017-02-19T14:07:07.717Z,6.12
2017-02-19T14:08:16.666Z,6.11
2017-02-19T14:09:26.008Z,6.17
2017-02-19T14:10:35.417Z,6.19
2017-02-19T14:11:44.469Z,6.28
2017-02-19T14:12:53.850Z,6.18
2017-02-19T14:14:03.234Z,6.27
2017-02-19T14:15:12.580Z,6.27
2017-02-19T14:16:22.398Z,6.3
2017-02-19T14:17:31.886Z,6.22
2017-02-19T14:18:41.684Z,6.27
2017-02-19T14:19:50.700Z,6.27
2017-02-19T14:20:59.719Z,6.19
2017-02-19T14:22:09.542Z,6.22
2017-02-19T14:23:19.224Z,6.18
2017-02-19T14:24:29.431Z,6.28
2017-02-19T14:25:39.685Z,6.17
2017-02-19T14:26:49.338Z,6.12
2017-02-19T14:27:58.307Z,6.08
2017-02-19T14:29:08.756Z,6.11
2017-02-19T14:30:17.722Z,6.19
2017-02-19T14:31:27.123Z,6.11
2017-02-19T14:32:36.515Z,6.14
2017-02-19T14:33:45.464Z,6.15
2017-02-19T14:34:55.668Z,6.14
2017-02-19T14:36:05.043Z,6.22
2017-02-19T14:37:14.812Z,6.12
2017-02-19T14:38:24.641Z,6.12
2017-02-19T14:39:33.601Z,6.08
2017-02-19T14:40:43.216Z,6.21
2017-02-19T14:41:52.152Z,6.11
2017-02-19T14:43:01.944Z,6.11
2017-02-19T14:44:11.299Z,6.12
2017-02-19T14:45:20.692Z,6.12
2017-02-19T14:46:30.268Z,6.19
2017-02-19T14:47:40.023Z,6.17
2017-02-19T14:48:48.971Z,6.17
2017-02-19T14:49:58.790Z,6.18
2017-02-19T14:51:08.590Z,6.17
2017-02-19T14:52:17.627Z,6.14
2017-02-19T14:53:27.442Z,6.19
2017-02-19T14:54:36.499Z,6.22
2017-02-19T14:55:45.925Z,6.18
2017-02-19T14:56:55.755Z,6.18
2017-02-19T14:58:05.330Z,6.14
2017-02-19T14:59:14.292Z,6.17
2017-02-19T15:00:23.690Z,6.14
2017-02-19T15:01:33.095Z,6.25
2017-02-19T15:02:43.690Z,6.17
2017-02-19T15:03:53.456Z,6.18
2017-02-19T15:05:04.105Z,6.18
2017-02-19T15:06:13.872Z,6.22
2017-02-19T15:07:22.855Z,6.27
2017-02-19T15:08:31.839Z,6.19
2017-02-19T15:09:40.923Z,6.22
2017-02-19T15:10:49.898Z,6.3
2017-02-19T15:11:59.303Z,6.3
2017-02-19T15:13:08.685Z,6.21
2017-02-19T15:14:18.078Z,6.28
2017-02-19T15:15:28.020Z,6.28
2017-02-19T15:16:38.283Z,6.22
2017-02-19T15:17:47.649Z,6.28
2017-02-19T15:18:57.845Z,6.3
2017-02-19T15:20:08.052Z,6.19
2017-02-19T15:21:17.225Z,6.33
2017-02-19T15:22:26.236Z,6.19
2017-02-19T15:23:35.654Z,6.33
2017-02-19T15:24:45.020Z,6.27
2017-02-19T15:25:54.401Z,6.25
2017-02-19T15:27:04.128Z,6.25